Friday, January 18, 2019, 2:39 AM EST
Back to Local

KMSV, Monticello, Sullivan County International Airport

Location: Swan Lake, NY, United States Lat: 41.7
Local Time: 2:39 AM EST ( 7:39 GMT) Lon: -74.8
Time Zone: US/Eastern Elev: 1404 ft

Show me the last for .
Show Decoded

2019-01-18 02:17 METAR KMSV 180717Z AUTO 08005KT 3SM -SN BR SCT017 OVC030 M08/M09 A3011 RMK AO2
                 P0001 FZRANO =
2019-01-18 02:11 METAR KMSV 180711Z AUTO 08005KT 2 1/2SM -SN BR BKN015 BKN022 OVC032 M08/M09
                 A3011 RMK AO2 VIS 1 1/2V5 P0001 FZRANO =
2019-01-18 01:56 METAR KMSV 180656Z AUTO 09005KT 1 3/4SM -SN BR OVC018 M08/M09 A3012 RMK AO2
                 SLP219 P0001 T10781089 FZRANO =
2019-01-18 01:27 METAR KMSV 180627Z AUTO 08006KT 1 1/4SM -SN BR OVC018 M08/M09 A3012 RMK AO2
                 P0001 FZRANO =
2019-01-18 01:11 METAR KMSV 180611Z AUTO 08004KT 1SM -SN BR BKN016 OVC025 M08/M09 A3012 RMK AO2
                 P0001 FZRANO RVRNO =
2019-01-18 00:56 METAR KMSV 180556Z AUTO 08004KT 1 3/4SM -SN BR FEW014 OVC025 M08/M09 A3012 RMK
                 AO2 SLP222 P0001 60003 T10781089 11061 21078 58014 FZRANO =
2019-01-18 00:34 METAR KMSV 180534Z AUTO 09005KT 1 1/4SM -SN BR BKN016 OVC024 M08/M09 A3012 RMK
                 AO2 P0001 FZRANO =
2019-01-18 00:27 METAR KMSV 180527Z AUTO 08005KT 2SM -SN BR BKN018 OVC024 M08/M09 A3013 RMK AO2
                 P0001 FZRANO =
2019-01-17 23:56 METAR KMSV 180456Z AUTO 08004KT 1 1/2SM -SN BR OVC019 M08/M09 A3015 RMK AO2
                 SLP229 P0001 T10781089 410111117 FZRANO TSNO =
2019-01-17 23:54 METAR KMSV 180454Z AUTO 08003KT 1 3/4SM -SN BR OVC019 M08/M09 A3015 RMK AO2
                 P0001 410111117 FZRANO =
2019-01-17 22:56 METAR KMSV 180356Z AUTO 10004KT 2 1/2SM -SN BR OVC015 M07/M09 A3016 RMK AO2 VIS
                 1 3/4V4 SLP237 P0001 T10721094 FZRANO =
2019-01-17 22:49 METAR KMSV 180349Z AUTO 09004KT 1 3/4SM -SN OVC015 M07/M10 A3016 RMK AO2 P0001
                 FZRANO =
2019-01-17 22:42 METAR KMSV 180342Z AUTO 10003KT 2SM -SN OVC015 M07/M11 A3017 RMK AO2 P0001
                 FZRANO =
2019-01-17 22:30 METAR KMSV 180330Z AUTO 11004KT 1 1/2SM -SN OVC013 M07/M11 A3017 RMK AO2 P0000
                 FZRANO =
2019-01-17 22:17 METAR KMSV 180317Z AUTO 13004KT 2SM -SN OVC013 M07/M12 A3017 RMK AO2 P0000
                 FZRANO =
2019-01-17 21:56 METAR KMSV 180256Z AUTO 15006KT 2 1/2SM -SN OVC015 M07/M12 A3018 RMK AO2 VIS 1
                 3/4V4 SNB32 SLP242 P0000 60000 T10671122 56009 FZRANO =
2019-01-17 21:27 METAR KMSV 180227Z AUTO 11003KT 10SM BKN024 BKN029 OVC039 M06/M14 A3018 RMK AO2
                 FZRANO =
2019-01-17 20:56 METAR KMSV 180156Z AUTO 11005KT 10SM OVC037 M06/M14 A3018 RMK AO2 SLP244
                 T10611139 FZRANO =
2019-01-17 19:56 METAR KMSV 180056Z AUTO 10005KT 10SM CLR M07/M14 A3019 RMK AO2 SLP251 T10671139
                 FZRANO =
2019-01-17 18:56 METAR KMSV 172356Z AUTO 11005KT 10SM SCT100 SCT120 M06/M14 A3021 RMK AO2 SLP254
                 T10611144 11017 21067 53001 FZRANO =
2019-01-17 17:56 METAR KMSV 172256Z AUTO 14007KT 10SM BKN090 M05/M15 A3021 RMK AO2 SLP255
                 T10501150 FZRANO =
2019-01-17 16:56 METAR KMSV 172156Z AUTO 12008KT 10SM CLR M04/M15 A3019 RMK AO2 SLP248 T10441150
                 FZRANO =
2019-01-17 15:56 METAR KMSV 172056Z AUTO 16007KT 10SM CLR M03/M15 A3020 RMK AO2 SLP251 T10281150
                 56016 FZRANO =
2019-01-17 14:56 METAR KMSV 171956Z AUTO 18005KT 10SM CLR M02/M16 A3022 RMK AO2 SLP256 T10221156
                 FZRANO =
2019-01-17 13:56 METAR KMSV 171856Z AUTO 14005KT 10SM CLR M03/M15 A3023 RMK AO2 SLP261 T10281150
                 FZRANO =
2019-01-17 10:56 METAR KMSV 171556Z AUTO 08003KT 10SM CLR M05/M13 A3033 RMK AO2 SLP293 T10501133
                 FZRANO =
2019-01-17 09:56 METAR KMSV 171456Z AUTO 28003KT 10SM CLR M06/M11 A3034 RMK AO2 SLP297 T10611111
                 53013 FZRANO =
2019-01-17 08:56 METAR KMSV 171356Z AUTO 00000KT 10SM CLR M09/M12 A3033 RMK AO2 SLP294 T10891117
                 FZRANO =
2019-01-17 07:56 METAR KMSV 171256Z AUTO 00000KT 10SM CLR M12/M14 A3031 RMK AO2 SLP288 T11171139
                 FZRANO =
2019-01-17 06:56 METAR KMSV 171156Z AUTO 30004KT 10SM CLR M11/M14 A3030 RMK AO2 SLP284 T11111139
                 11094 21117 53013 FZRANO =
2019-01-17 05:56 METAR KMSV 171056Z AUTO 28006KT 10SM CLR M12/M14 A3028 RMK AO2 SLP276 T11171139
                 FZRANO =
2019-01-17 04:56 METAR KMSV 170956Z AUTO 31004KT 10SM CLR M12/M14 A3026 RMK AO2 SLP268 T11171139
                 FZRANO =
2019-01-17 03:56 METAR KMSV 170856Z AUTO 30006KT 10SM CLR M11/M14 A3026 RMK AO2 SLP268 T11111139
                 51014 FZRANO =
2019-01-17 02:56 METAR KMSV 170756Z AUTO 27004KT 10SM CLR M11/M14 A3026 RMK AO2 SLP268 T11061139
                 FZRANO =

Support USWX by starting your Amazon purchase here.